createdAt,value
2019-01-23T00:00:16.793Z,108.20
2019-01-23T00:02:44.935Z,108.97
2019-01-23T00:05:13.065Z,102.27
2019-01-23T00:07:41.226Z,99.33
2019-01-23T00:10:09.400Z,98.73
2019-01-23T00:12:37.537Z,104.27
2019-01-23T00:15:25.195Z,105.90
2019-01-23T00:17:53.439Z,105.93
2019-01-23T00:20:21.718Z,104.00
2019-01-23T00:22:49.865Z,102.93
2019-01-23T00:25:18.008Z,104.70
2019-01-23T00:27:46.261Z,107.73
2019-01-23T00:30:15.199Z,99.23
2019-01-23T00:32:43.416Z,106.37
2019-01-23T00:35:12.060Z,103.20
2019-01-23T00:37:40.199Z,105.37
2019-01-23T00:40:13.152Z,100.40
2019-01-23T00:42:41.381Z,101.57
2019-01-23T00:45:11.097Z,100.90
2019-01-23T00:47:39.306Z,103.90
2019-01-23T00:50:08.943Z,97.80
2019-01-23T00:52:37.159Z,103.80
2019-01-23T00:55:42.938Z,101.97
2019-01-23T00:58:11.101Z,96.53
2019-01-23T01:00:39.461Z,97.77
2019-01-23T01:03:07.597Z,97.83
2019-01-23T01:05:35.848Z,98.00
2019-01-23T01:08:04.284Z,97.63
2019-01-23T01:10:32.484Z,99.87
2019-01-23T01:13:00.614Z,97.47
2019-01-23T01:15:28.836Z,97.43
2019-01-23T01:17:56.989Z,96.57
2019-01-23T01:20:25.229Z,101.57
2019-01-23T01:22:53.357Z,92.97
2019-01-23T01:25:21.712Z,95.97
2019-01-23T01:27:49.970Z,92.20
2019-01-23T01:30:19.332Z,96.97
2019-01-23T01:32:47.781Z,92.70
2019-01-23T01:35:15.936Z,90.17
2019-01-23T01:37:44.184Z,94.07
2019-01-23T01:40:16.281Z,90.37
2019-01-23T01:42:44.423Z,91.13
2019-01-23T01:45:14.756Z,94.13
2019-01-23T01:47:43.476Z,93.70
2019-01-23T01:50:13.271Z,90.80
2019-01-23T01:52:41.408Z,91.67
2019-01-23T01:55:10.042Z,92.10
2019-01-23T01:57:38.256Z,92.67
2019-01-23T02:00:08.039Z,91.30
2019-01-23T02:02:36.275Z,91.27
2019-01-23T02:05:05.675Z,92.13
2019-01-23T02:07:33.792Z,88.43
2019-01-23T02:10:02.001Z,91.27
2019-01-23T02:12:30.403Z,86.13
2019-01-23T02:14:58.554Z,86.63
2019-01-23T02:17:26.688Z,90.73
2019-01-23T02:19:54.889Z,90.70
2019-01-23T02:22:23.036Z,88.83
2019-01-23T02:24:51.153Z,84.33
2019-01-23T02:27:19.389Z,81.97
2019-01-23T02:29:47.597Z,88.47
2019-01-23T02:32:15.847Z,87.10
2019-01-23T02:34:43.976Z,85.10
2019-01-23T02:37:12.201Z,85.07
2019-01-23T02:39:40.426Z,88.93
2019-01-23T02:42:08.744Z,83.20
2019-01-23T02:44:36.896Z,86.70
2019-01-23T02:47:05.140Z,82.67
2019-01-23T02:49:33.362Z,80.50
2019-01-23T02:52:01.497Z,82.40
2019-01-23T02:54:29.716Z,80.40
2019-01-23T02:56:57.842Z,80.40
2019-01-23T02:59:26.069Z,81.97
2019-01-23T03:01:54.283Z,79.43
2019-01-23T03:04:22.427Z,77.77
2019-01-23T03:06:50.550Z,76.73
2019-01-23T03:09:18.784Z,78.43
2019-01-23T03:11:46.919Z,79.70
2019-01-23T03:14:15.056Z,75.80
2019-01-23T03:16:43.302Z,75.57
2019-01-23T03:19:11.883Z,79.90
2019-01-23T03:21:40.014Z,78.23
2019-01-23T03:24:08.659Z,75.30
2019-01-23T03:26:37.035Z,76.07
2019-01-23T03:29:05.164Z,75.80
2019-01-23T03:31:33.429Z,71.60
2019-01-23T03:34:01.596Z,74.00
2019-01-23T03:36:29.722Z,75.23
2019-01-23T03:38:57.846Z,73.40
2019-01-23T03:41:26.025Z,69.87
2019-01-23T03:43:54.167Z,70.87
2019-01-23T03:46:22.305Z,69.57
2019-01-23T03:48:50.498Z,70.87
2019-01-23T03:51:18.694Z,69.07
2019-01-23T03:53:46.952Z,68.73
2019-01-23T03:56:15.113Z,67.43
2019-01-23T03:58:43.322Z,69.47
2019-01-23T04:01:11.533Z,69.43
2019-01-23T04:03:39.695Z,68.57
2019-01-23T04:06:07.854Z,67.87
2019-01-23T04:08:36.295Z,66.63
2019-01-23T04:11:04.560Z,66.33
2019-01-23T04:13:32.685Z,63.87
2019-01-23T04:16:00.820Z,67.03
2019-01-23T04:18:29.052Z,66.47
2019-01-23T04:20:57.361Z,67.13
2019-01-23T04:23:25.504Z,64.40
2019-01-23T04:25:53.658Z,65.53
2019-01-23T04:28:21.870Z,61.20
2019-01-23T04:30:50.076Z,66.83
2019-01-23T04:33:18.269Z,64.93
2019-01-23T04:35:46.481Z,63.33
2019-01-23T04:38:14.641Z,61.53
2019-01-23T04:40:42.798Z,64.03
2019-01-23T04:43:11.164Z,62.40
2019-01-23T04:45:39.333Z,60.73
2019-01-23T04:48:07.602Z,60.33
2019-01-23T04:50:37.422Z,62.90
2019-01-23T04:53:10.531Z,64.33
2019-01-23T04:55:40.093Z,58.30
2019-01-23T04:58:08.245Z,61.73
2019-01-23T05:00:36.409Z,60.50
2019-01-23T05:03:04.548Z,60.67
2019-01-23T05:05:32.688Z,59.17
2019-01-23T05:08:01.111Z,63.17
2019-01-23T05:10:29.258Z,58.43
2019-01-23T05:12:57.448Z,58.67
2019-01-23T05:15:25.718Z,57.57
2019-01-23T05:17:53.925Z,58.33
2019-01-23T05:20:22.086Z,55.27
2019-01-23T05:22:50.297Z,58.33
2019-01-23T05:25:18.436Z,55.53
2019-01-23T05:27:46.670Z,56.17
2019-01-23T05:30:16.438Z,62.70
2019-01-23T05:32:44.574Z,54.50
2019-01-23T05:35:12.738Z,54.30
2019-01-23T05:37:40.875Z,55.77
2019-01-23T05:40:09.278Z,57.30
2019-01-23T05:42:37.488Z,51.93
2019-01-23T05:45:06.770Z,53.17
2019-01-23T05:47:34.919Z,54.03
2019-01-23T05:50:03.750Z,52.30
2019-01-23T05:52:31.905Z,52.57
2019-01-23T05:55:00.037Z,55.33
2019-01-23T05:57:29.853Z,54.83
2019-01-23T06:00:02.261Z,53.97
2019-01-23T06:02:27.774Z,48.50
2019-01-23T06:04:55.926Z,53.37
2019-01-23T06:07:24.077Z,52.93
2019-01-23T06:09:52.228Z,51.80
2019-01-23T06:12:20.480Z,52.83
2019-01-23T06:14:48.638Z,50.87
2019-01-23T06:17:16.766Z,52.10
2019-01-23T06:19:44.882Z,54.03
2019-01-23T06:22:13.024Z,50.27
2019-01-23T06:24:41.164Z,49.77
2019-01-23T06:27:09.440Z,51.73
2019-01-23T06:29:37.589Z,53.77
2019-01-23T06:32:05.792Z,52.67
2019-01-23T06:34:33.972Z,51.63
2019-01-23T06:37:02.098Z,52.07
2019-01-23T06:39:30.234Z,50.13
2019-01-23T06:41:58.435Z,49.73
2019-01-23T06:44:26.808Z,52.30
2019-01-23T06:46:54.964Z,48.37
2019-01-23T06:49:23.088Z,51.47
2019-01-23T06:51:51.211Z,48.40
2019-01-23T06:54:19.588Z,50.53
2019-01-23T06:56:47.800Z,48.50
2019-01-23T06:59:16.046Z,50.10
2019-01-23T07:01:44.237Z,47.90
2019-01-23T07:04:12.498Z,50.27
2019-01-23T07:06:40.628Z,51.10
2019-01-23T07:09:08.861Z,45.37
2019-01-23T07:11:37.069Z,47.53
2019-01-23T07:14:05.407Z,45.57
2019-01-23T07:16:33.539Z,45.00
2019-01-23T07:19:01.696Z,49.93
2019-01-23T07:21:29.838Z,50.80
2019-01-23T07:23:57.997Z,45.70
2019-01-23T07:26:26.132Z,43.70
2019-01-23T07:28:54.464Z,44.90
2019-01-23T07:31:22.619Z,48.50
2019-01-23T07:33:50.845Z,47.50
2019-01-23T07:36:19.040Z,45.20
2019-01-23T07:38:47.295Z,45.67
2019-01-23T07:41:15.432Z,44.77
2019-01-23T07:43:43.645Z,53.20
2019-01-23T07:46:11.836Z,45.63
2019-01-23T07:48:40.044Z,49.17
2019-01-23T07:51:08.262Z,47.30
2019-01-23T07:53:37.098Z,48.37
2019-01-23T07:56:05.305Z,46.07
2019-01-23T07:58:33.462Z,46.30
2019-01-23T08:01:01.599Z,44.67
2019-01-23T08:03:29.740Z,44.40
2019-01-23T08:05:57.894Z,48.23
2019-01-23T08:08:26.141Z,47.57
2019-01-23T08:10:54.427Z,47.37
2019-01-23T08:13:22.580Z,44.77
2019-01-23T08:15:50.764Z,43.90
2019-01-23T08:18:18.899Z,46.33
2019-01-23T08:20:47.038Z,46.27
2019-01-23T08:23:15.232Z,44.87
2019-01-23T08:25:43.579Z,44.77
2019-01-23T08:28:11.796Z,44.33
2019-01-23T08:30:40.934Z,45.47
2019-01-23T08:33:09.301Z,46.33
2019-01-23T08:35:37.465Z,42.67
2019-01-23T08:38:05.677Z,43.93
2019-01-23T08:40:33.812Z,42.70
2019-01-23T08:43:02.016Z,43.97
2019-01-23T08:45:30.360Z,41.47
2019-01-23T08:47:58.486Z,47.33
2019-01-23T08:50:37.163Z,43.27
2019-01-23T08:53:05.285Z,44.60
2019-01-23T08:55:33.730Z,39.20
2019-01-23T08:58:01.907Z,42.87
2019-01-23T09:00:30.045Z,39.30
2019-01-23T09:02:58.197Z,40.17
2019-01-23T09:05:26.462Z,43.00
2019-01-23T09:07:54.740Z,42.50
2019-01-23T09:10:26.975Z,40.27
2019-01-23T09:12:55.191Z,39.90
2019-01-23T09:15:23.336Z,39.83
2019-01-23T09:17:51.532Z,40.27
2019-01-23T09:20:20.427Z,41.87
2019-01-23T09:22:48.630Z,40.67
2019-01-23T09:25:17.805Z,37.93
2019-01-23T09:27:45.937Z,38.93
2019-01-23T09:30:15.820Z,38.67
2019-01-23T09:32:51.637Z,36.47
2019-01-23T09:35:33.581Z,37.40
2019-01-23T09:38:06.085Z,37.80
2019-01-23T09:40:35.901Z,37.33
2019-01-23T09:43:05.654Z,37.93
2019-01-23T09:45:38.193Z,36.73
2019-01-23T09:48:08.000Z,34.90
2019-01-23T09:50:37.811Z,33.00
2019-01-23T09:53:13.335Z,37.27
2019-01-23T09:55:41.566Z,36.00
2019-01-23T09:58:09.854Z,36.10
2019-01-23T10:00:38.064Z,35.93
2019-01-23T10:03:06.279Z,34.20
2019-01-23T10:05:34.420Z,33.70
2019-01-23T10:08:02.577Z,35.67
2019-01-23T10:10:30.719Z,35.07
2019-01-23T10:12:58.965Z,33.13
2019-01-23T10:16:00.703Z,33.80
2019-01-23T10:18:29.018Z,29.20
2019-01-23T10:20:57.523Z,32.90
2019-01-23T10:23:25.811Z,32.07
2019-01-23T10:25:54.107Z,33.13
2019-01-23T10:28:22.416Z,30.83
2019-01-23T10:30:50.689Z,31.57
2019-01-23T10:33:19.004Z,32.60
2019-01-23T10:35:47.359Z,34.23
2019-01-23T10:38:15.668Z,33.37
2019-01-23T10:40:44.003Z,31.20
2019-01-23T10:43:12.313Z,32.50
2019-01-23T10:45:40.602Z,30.77
2019-01-23T10:48:08.880Z,31.00
2019-01-23T10:50:37.183Z,31.47
2019-01-23T10:53:05.449Z,31.33
2019-01-23T10:55:33.739Z,31.30
2019-01-23T10:58:02.609Z,31.03
2019-01-23T11:00:30.891Z,29.33
2019-01-23T11:02:59.162Z,33.13
2019-01-23T11:05:28.465Z,28.53
2019-01-23T11:07:56.730Z,30.57
2019-01-23T11:10:25.255Z,30.13
2019-01-23T11:12:53.510Z,29.87
2019-01-23T11:15:21.788Z,30.37
2019-01-23T11:17:50.112Z,31.17
2019-01-23T11:20:19.457Z,30.33
2019-01-23T11:22:47.753Z,32.20
2019-01-23T11:25:16.041Z,30.03
2019-01-23T11:27:44.923Z,30.03
2019-01-23T11:30:14.739Z,30.77
2019-01-23T11:32:43.042Z,29.83
2019-01-23T11:35:11.345Z,28.23
2019-01-23T11:37:39.643Z,30.90
2019-01-23T11:40:09.480Z,27.27
2019-01-23T11:42:37.792Z,30.43
2019-01-23T11:45:07.636Z,30.67
2019-01-23T11:47:35.916Z,27.43
2019-01-23T11:50:05.911Z,28.53
2019-01-23T11:52:34.187Z,31.17
2019-01-23T11:55:02.661Z,31.07
2019-01-23T11:57:30.914Z,28.53
2019-01-23T11:59:59.189Z,30.13
2019-01-23T12:02:31.001Z,29.43
2019-01-23T12:04:57.403Z,28.37
2019-01-23T12:07:25.700Z,28.27
2019-01-23T12:09:53.972Z,28.00
2019-01-23T12:12:22.260Z,29.80
2019-01-23T12:14:50.529Z,29.70
2019-01-23T12:17:18.790Z,29.40
2019-01-23T12:19:47.118Z,29.33
2019-01-23T12:22:15.411Z,28.60
2019-01-23T12:24:43.674Z,28.17
2019-01-23T12:27:11.993Z,28.53
2019-01-23T12:29:40.263Z,27.40
2019-01-23T12:32:08.540Z,27.07
2019-01-23T12:34:36.810Z,28.63
2019-01-23T12:37:05.081Z,28.73
2019-01-23T12:39:33.338Z,27.23
2019-01-23T12:42:01.616Z,28.63
2019-01-23T12:44:29.881Z,27.60
2019-01-23T12:46:58.113Z,27.90
2019-01-23T12:49:26.423Z,26.17
2019-01-23T12:51:54.714Z,26.53
2019-01-23T12:54:22.989Z,28.37
2019-01-23T12:56:51.294Z,25.30
2019-01-23T12:59:19.568Z,25.63
2019-01-23T13:01:47.833Z,26.47
2019-01-23T13:04:16.034Z,24.87
2019-01-23T13:06:44.309Z,24.97
2019-01-23T13:09:12.682Z,26.23
2019-01-23T13:11:40.970Z,27.00
2019-01-23T13:14:09.522Z,25.00
2019-01-23T13:16:37.811Z,25.50
2019-01-23T13:19:06.107Z,24.33
2019-01-23T13:21:34.434Z,24.50
2019-01-23T13:24:02.711Z,24.63
2019-01-23T13:26:30.979Z,25.07
2019-01-23T13:28:59.258Z,24.60
2019-01-23T13:31:27.521Z,26.67
2019-01-23T13:33:55.893Z,24.40
2019-01-23T13:36:24.118Z,25.43
2019-01-23T13:38:52.387Z,25.83
2019-01-23T13:41:20.677Z,27.97
2019-01-23T13:43:48.956Z,25.33
2019-01-23T13:46:17.240Z,24.77
2019-01-23T13:48:45.595Z,24.47
2019-01-23T13:51:13.917Z,29.40
2019-01-23T13:53:43.294Z,27.57
2019-01-23T13:56:11.637Z,27.27
2019-01-23T13:58:41.846Z,29.40
2019-01-23T14:01:12.746Z,23.97
2019-01-23T14:03:41.052Z,27.17
2019-01-23T14:06:09.430Z,24.03
2019-01-23T14:08:37.706Z,27.93
2019-01-23T14:11:06.030Z,26.83
2019-01-23T14:13:34.322Z,25.93
2019-01-23T14:16:02.589Z,29.53
2019-01-23T14:18:30.881Z,28.50
2019-01-23T14:20:59.186Z,24.73
2019-01-23T14:23:27.462Z,26.40
2019-01-23T14:25:55.835Z,28.00
2019-01-23T14:28:24.116Z,26.37
2019-01-23T14:30:52.447Z,25.13
2019-01-23T14:33:20.729Z,25.70
2019-01-23T14:35:49.212Z,28.10
2019-01-23T14:38:17.505Z,29.30
2019-01-23T14:40:45.805Z,26.10
2019-01-23T14:43:14.066Z,27.40
2019-01-23T14:45:42.418Z,26.47
2019-01-23T14:48:10.771Z,24.97
2019-01-23T14:50:39.035Z,24.43
2019-01-23T14:53:07.312Z,28.77
2019-01-23T14:55:35.627Z,26.27
2019-01-23T14:58:03.915Z,26.43
2019-01-23T15:00:32.696Z,29.43
2019-01-23T15:03:01.105Z,28.93
2019-01-23T15:05:48.771Z,26.13
2019-01-23T15:08:17.056Z,27.43
2019-01-23T15:10:45.341Z,25.50
2019-01-23T15:13:13.634Z,25.17
2019-01-23T15:15:41.902Z,24.27
2019-01-23T15:18:10.209Z,25.13
2019-01-23T15:20:38.816Z,25.67
2019-01-23T15:23:07.105Z,24.43
2019-01-23T15:25:35.383Z,24.73
2019-01-23T15:28:03.690Z,24.90
2019-01-23T15:30:31.970Z,25.23
2019-01-23T15:33:00.255Z,26.83
2019-01-23T15:35:28.518Z,27.00
2019-01-23T15:37:56.800Z,28.07
2019-01-23T15:40:26.480Z,24.47
2019-01-23T15:43:14.130Z,25.57
2019-01-23T15:45:42.427Z,26.10
2019-01-23T15:48:10.754Z,25.47
2019-01-23T15:50:39.158Z,22.83
2019-01-23T15:53:07.740Z,24.90
2019-01-23T15:55:36.020Z,25.50
2019-01-23T15:58:04.300Z,24.83
2019-01-23T16:00:32.691Z,23.43
2019-01-23T16:03:00.964Z,23.60
2019-01-23T16:05:29.265Z,25.30
2019-01-23T16:07:58.751Z,24.07
2019-01-23T16:10:27.927Z,25.37
2019-01-23T16:12:56.207Z,26.93
2019-01-23T16:15:25.597Z,25.47
2019-01-23T16:17:53.895Z,23.07
2019-01-23T16:20:22.212Z,23.17
2019-01-23T16:22:50.472Z,26.07
2019-01-23T16:25:18.742Z,23.37
2019-01-23T16:27:47.166Z,24.43
2019-01-23T16:30:17.041Z,22.07
2019-01-23T16:32:45.364Z,27.53
2019-01-23T16:35:13.896Z,26.13
2019-01-23T16:37:42.123Z,22.87
2019-01-23T16:40:10.411Z,24.43
2019-01-23T16:42:38.768Z,26.87
2019-01-23T16:45:08.607Z,27.83
2019-01-23T16:47:37.083Z,27.00
2019-01-23T16:50:09.990Z,26.07
2019-01-23T16:52:38.635Z,26.30
2019-01-23T16:55:26.295Z,29.27
2019-01-23T16:57:54.562Z,25.53
2019-01-23T17:00:24.403Z,29.40
2019-01-23T17:02:53.350Z,27.23
2019-01-23T17:05:23.226Z,27.57
2019-01-23T17:07:51.510Z,25.53
2019-01-23T17:10:21.101Z,27.13
2019-01-23T17:12:49.369Z,25.67
2019-01-23T17:15:17.687Z,24.57
2019-01-23T17:17:45.968Z,26.90
2019-01-23T17:20:15.794Z,28.50
2019-01-23T17:22:44.062Z,25.37
2019-01-23T17:25:12.576Z,24.97
2019-01-23T17:27:40.837Z,25.80
2019-01-23T17:30:10.534Z,23.97
2019-01-23T17:32:45.440Z,26.90
2019-01-23T17:35:10.087Z,25.73
2019-01-23T17:37:38.582Z,23.70
2019-01-23T17:40:08.417Z,27.13
2019-01-23T17:42:37.996Z,23.33
2019-01-23T17:45:07.822Z,25.70
2019-01-23T17:47:36.036Z,23.17
2019-01-23T17:50:05.799Z,24.77
2019-01-23T17:52:34.088Z,26.43
2019-01-23T17:55:02.376Z,24.17
2019-01-23T17:57:30.613Z,28.57
2019-01-23T17:59:58.835Z,32.27
2019-01-23T18:02:27.041Z,30.60
2019-01-23T18:04:56.204Z,28.33
2019-01-23T18:07:24.410Z,26.47
2019-01-23T18:09:52.538Z,26.07
2019-01-23T18:12:20.715Z,28.33
2019-01-23T18:14:49.130Z,26.47
2019-01-23T18:17:17.486Z,26.63
2019-01-23T18:19:45.659Z,24.67
2019-01-23T18:22:14.528Z,24.67
2019-01-23T18:24:42.895Z,25.23
2019-01-23T18:27:11.685Z,25.50
2019-01-23T18:29:40.003Z,22.53
2019-01-23T18:32:08.321Z,22.87
2019-01-23T18:34:44.067Z,24.00
2019-01-23T18:37:16.912Z,22.50
2019-01-23T18:40:05.154Z,24.60
2019-01-23T18:42:34.981Z,23.70
2019-01-23T18:45:04.816Z,20.93
2019-01-23T18:47:34.655Z,23.57
2019-01-23T18:50:07.172Z,25.10
2019-01-23T18:52:35.320Z,24.07
2019-01-23T18:55:04.638Z,21.57
2019-01-23T18:57:33.350Z,24.13
2019-01-23T19:00:01.622Z,22.43
2019-01-23T19:02:29.837Z,22.13
2019-01-23T19:04:57.966Z,21.77
2019-01-23T19:07:45.532Z,20.23
2019-01-23T19:10:15.242Z,22.00
2019-01-23T19:12:43.401Z,21.73
2019-01-23T19:15:13.015Z,20.47
2019-01-23T19:17:41.146Z,23.00
2019-01-23T19:20:13.948Z,19.97
2019-01-23T19:22:42.156Z,21.33
2019-01-23T19:25:10.300Z,20.30
2019-01-23T19:27:38.571Z,20.93
2019-01-23T19:30:09.286Z,21.50
2019-01-23T19:32:37.720Z,22.53
2019-01-23T19:35:06.328Z,20.97
2019-01-23T19:37:34.473Z,21.37
2019-01-23T19:40:02.626Z,19.97
2019-01-23T19:42:30.916Z,20.83
2019-01-23T19:44:59.121Z,21.70
2019-01-23T19:47:27.323Z,20.13
2019-01-23T19:49:55.853Z,21.60
2019-01-23T19:52:24.071Z,21.87
2019-01-23T19:54:52.202Z,19.90
2019-01-23T19:57:20.430Z,19.87
2019-01-23T19:59:48.645Z,20.20
2019-01-23T20:02:17.226Z,19.30
2019-01-23T20:04:45.378Z,20.63
2019-01-23T20:07:13.579Z,20.90
2019-01-23T20:09:41.808Z,19.77
2019-01-23T20:12:15.611Z,19.27
2019-01-23T20:14:39.725Z,20.03
2019-01-23T20:17:07.950Z,23.03
2019-01-23T20:19:36.084Z,20.50
2019-01-23T20:22:04.237Z,19.33
2019-01-23T20:24:32.445Z,20.33
2019-01-23T20:27:00.634Z,19.57
2019-01-23T20:29:28.775Z,19.63
2019-01-23T20:31:56.975Z,20.67
2019-01-23T20:34:25.148Z,19.97
2019-01-23T20:36:53.607Z,21.10
2019-01-23T20:39:21.764Z,19.97
2019-01-23T20:41:49.926Z,20.47
2019-01-23T20:44:18.142Z,20.07
2019-01-23T20:46:46.273Z,19.80
2019-01-23T20:49:14.586Z,19.87
2019-01-23T20:51:42.880Z,20.83
2019-01-23T20:54:11.108Z,22.90
2019-01-23T20:56:39.284Z,21.27
2019-01-23T20:59:07.523Z,19.60
2019-01-23T21:01:35.661Z,20.60
2019-01-23T21:04:04.165Z,22.63
2019-01-23T21:06:32.308Z,19.50
2019-01-23T21:09:00.479Z,20.20
2019-01-23T21:11:28.611Z,19.50
2019-01-23T21:13:56.766Z,20.27
2019-01-23T21:16:24.981Z,18.90
2019-01-23T21:18:53.296Z,21.03
2019-01-23T21:21:21.432Z,19.60
2019-01-23T21:23:49.731Z,19.97
2019-01-23T21:26:17.890Z,20.23
2019-01-23T21:28:46.014Z,20.73
2019-01-23T21:31:14.151Z,20.77
2019-01-23T21:33:42.432Z,20.17
2019-01-23T21:36:10.535Z,17.70
2019-01-23T21:38:38.685Z,19.40
2019-01-23T21:41:07.194Z,17.43
2019-01-23T21:43:35.340Z,19.47
2019-01-23T21:46:03.533Z,18.17
2019-01-23T21:48:31.631Z,20.53
2019-01-23T21:50:59.768Z,18.80
2019-01-23T21:53:27.894Z,21.10
2019-01-23T21:55:56.071Z,19.67
2019-01-23T21:58:24.212Z,17.83
2019-01-23T22:00:52.435Z,19.37
2019-01-23T22:03:20.602Z,19.03
2019-01-23T22:05:48.746Z,18.40
2019-01-23T22:08:17.013Z,18.00
2019-01-23T22:10:45.145Z,19.13
2019-01-23T22:13:13.338Z,18.90
2019-01-23T22:15:41.524Z,20.00
2019-01-23T22:18:09.681Z,19.27
2019-01-23T22:20:37.854Z,19.97
2019-01-23T22:23:05.993Z,18.07
2019-01-23T22:25:34.136Z,19.37
2019-01-23T22:28:21.686Z,17.97
2019-01-23T22:30:49.850Z,18.60
2019-01-23T22:33:18.137Z,17.53
2019-01-23T22:35:46.302Z,19.23
2019-01-23T22:38:15.391Z,19.07
2019-01-23T22:40:43.523Z,18.53
2019-01-23T22:43:15.052Z,18.57
2019-01-23T22:45:41.445Z,16.93
2019-01-23T22:48:09.604Z,18.50
2019-01-23T22:50:37.758Z,19.87
2019-01-23T22:53:05.893Z,18.13
2019-01-23T22:55:34.122Z,18.13
2019-01-23T22:58:02.315Z,18.23
2019-01-23T23:00:33.721Z,18.33
2019-01-23T23:03:03.088Z,17.97
2019-01-23T23:05:31.329Z,17.60
2019-01-23T23:07:59.457Z,18.37
2019-01-23T23:10:27.600Z,17.70
2019-01-23T23:12:55.753Z,17.53
2019-01-23T23:15:23.899Z,17.33
2019-01-23T23:17:52.642Z,17.33
2019-01-23T23:20:20.778Z,18.17
2019-01-23T23:22:48.916Z,17.33
2019-01-23T23:25:17.156Z,19.43
2019-01-23T23:27:45.292Z,16.53
2019-01-23T23:30:15.076Z,16.70
2019-01-23T23:32:43.225Z,17.60
2019-01-23T23:35:11.375Z,17.93
2019-01-23T23:37:39.518Z,17.00
2019-01-23T23:40:11.726Z,17.50
2019-01-23T23:42:39.854Z,16.53
2019-01-23T23:45:09.627Z,17.97
2019-01-23T23:47:37.784Z,16.83
2019-01-23T23:50:07.566Z,16.90
2019-01-23T23:52:35.686Z,19.70
2019-01-23T23:55:04.310Z,17.37
2019-01-23T23:57:32.458Z,16.77
